sensor_id;sensor_type;location;lat;lon;timestamp;temperature;humidity
32895;DHT22;19251;49.484;8.260;2024-02-23T00:04:32;11.70;14.60
32895;DHT22;19251;49.484;8.260;2024-02-23T00:09:34;11.70;14.60
32895;DHT22;19251;49.484;8.260;2024-02-23T00:19:40;11.60;14.40
32895;DHT22;19251;49.484;8.260;2024-02-23T00:24:42;11.60;14.40
32895;DHT22;19251;49.484;8.260;2024-02-23T00:29:44;11.60;14.40
32895;DHT22;19251;49.484;8.260;2024-02-23T00:34:46;11.40;14.30
32895;DHT22;19251;49.484;8.260;2024-02-23T00:39:48;11.40;14.30
32895;DHT22;19251;49.484;8.260;2024-02-23T00:49:53;11.20;14.10
32895;DHT22;19251;49.484;8.260;2024-02-23T00:54:55;11.10;14.10
32895;DHT22;19251;49.484;8.260;2024-02-23T00:59:57;11.10;14.10
32895;DHT22;19251;49.484;8.260;2024-02-23T01:04:59;11.10;14.10
32895;DHT22;19251;49.484;8.260;2024-02-23T01:10:01;11.00;14.00
32895;DHT22;19251;49.484;8.260;2024-02-23T01:15:05;10.90;13.90
32895;DHT22;19251;49.484;8.260;2024-02-23T01:20:07;11.00;14.00
32895;DHT22;19251;49.484;8.260;2024-02-23T01:25:10;11.00;14.00
32895;DHT22;19251;49.484;8.260;2024-02-23T01:30:12;10.40;16.80
32895;DHT22;19251;49.484;8.260;2024-02-23T01:35:14;9.90;17.80
32895;DHT22;19251;49.484;8.260;2024-02-23T01:40:16;9.60;18.40
32895;DHT22;19251;49.484;8.260;2024-02-23T01:45:18;9.40;18.40
32895;DHT22;19251;49.484;8.260;2024-02-23T01:50:20;9.10;18.90
32895;DHT22;19251;49.484;8.260;2024-02-23T01:55:22;9.00;19.00
32895;DHT22;19251;49.484;8.260;2024-02-23T02:00:25;8.80;19.50
32895;DHT22;19251;49.484;8.260;2024-02-23T02:10:30;8.70;20.40
32895;DHT22;19251;49.484;8.260;2024-02-23T02:15:33;8.50;20.10
32895;DHT22;19251;49.484;8.260;2024-02-23T02:20:36;8.60;20.30
32895;DHT22;19251;49.484;8.260;2024-02-23T02:25:38;8.40;20.40
32895;DHT22;19251;49.484;8.260;2024-02-23T02:30:40;8.50;20.40
32895;DHT22;19251;49.484;8.260;2024-02-23T02:35:42;8.50;20.50
32895;DHT22;19251;49.484;8.260;2024-02-23T02:40:44;8.40;20.50
32895;DHT22;19251;49.484;8.260;2024-02-23T02:45:46;8.60;20.40
32895;DHT22;19251;49.484;8.260;2024-02-23T02:50:48;8.70;20.70
32895;DHT22;19251;49.484;8.260;2024-02-23T02:55:55;8.70;20.60
32895;DHT22;19251;49.484;8.260;2024-02-23T03:00:57;8.80;20.40
32895;DHT22;19251;49.484;8.260;2024-02-23T03:05:59;8.90;20.30
32895;DHT22;19251;49.484;8.260;2024-02-23T03:11:01;9.00;20.30
32895;DHT22;19251;49.484;8.260;2024-02-23T03:16:03;9.00;20.20
32895;DHT22;19251;49.484;8.260;2024-02-23T03:21:05;9.00;20.00
32895;DHT22;19251;49.484;8.260;2024-02-23T03:26:08;9.00;20.00
32895;DHT22;19251;49.484;8.260;2024-02-23T03:31:10;9.10;20.00
32895;DHT22;19251;49.484;8.260;2024-02-23T03:36:12;9.10;19.90
32895;DHT22;19251;49.484;8.260;2024-02-23T03:41:14;9.10;19.80
32895;DHT22;19251;49.484;8.260;2024-02-23T03:46:17;9.10;19.60
32895;DHT22;19251;49.484;8.260;2024-02-23T03:51:19;9.10;19.60
32895;DHT22;19251;49.484;8.260;2024-02-23T03:56:21;9.10;19.50
32895;DHT22;19251;49.484;8.260;2024-02-23T04:01:23;9.10;19.50
32895;DHT22;19251;49.484;8.260;2024-02-23T04:06:26;9.20;19.60
32895;DHT22;19251;49.484;8.260;2024-02-23T04:11:28;9.10;19.50
32895;DHT22;19251;49.484;8.260;2024-02-23T04:16:30;9.10;19.50
32895;DHT22;19251;49.484;8.260;2024-02-23T04:21:33;9.00;19.50
32895;DHT22;19251;49.484;8.260;2024-02-23T04:26:35;9.00;19.50
32895;DHT22;19251;49.484;8.260;2024-02-23T04:31:37;9.00;19.50
32895;DHT22;19251;49.484;8.260;2024-02-23T04:36:39;8.90;19.50
32895;DHT22;19251;49.484;8.260;2024-02-23T04:41:41;8.90;19.60
32895;DHT22;19251;49.484;8.260;2024-02-23T04:46:43;8.90;19.80
32895;DHT22;19251;49.484;8.260;2024-02-23T04:51:45;8.90;19.70
32895;DHT22;19251;49.484;8.260;2024-02-23T04:56:47;8.90;19.80
32895;DHT22;19251;49.484;8.260;2024-02-23T05:01:49;8.90;19.70
32895;DHT22;19251;49.484;8.260;2024-02-23T05:06:52;8.90;19.60
32895;DHT22;19251;49.484;8.260;2024-02-23T05:11:54;9.00;19.60
32895;DHT22;19251;49.484;8.260;2024-02-23T05:16:57;9.10;19.70
32895;DHT22;19251;49.484;8.260;2024-02-23T05:21:59;9.10;19.60
32895;DHT22;19251;49.484;8.260;2024-02-23T05:27:01;9.20;19.60
32895;DHT22;19251;49.484;8.260;2024-02-23T05:32:06;9.40;19.60
32895;DHT22;19251;49.484;8.260;2024-02-23T05:37:08;9.50;19.20
32895;DHT22;19251;49.484;8.260;2024-02-23T05:42:10;9.60;19.20
32895;DHT22;19251;49.484;8.260;2024-02-23T05:47:12;9.60;18.90
32895;DHT22;19251;49.484;8.260;2024-02-23T05:52:16;9.70;18.70
32895;DHT22;19251;49.484;8.260;2024-02-23T05:57:18;9.70;18.60
32895;DHT22;19251;49.484;8.260;2024-02-23T06:02:20;9.80;18.50
32895;DHT22;19251;49.484;8.260;2024-02-23T06:07:22;9.80;18.40
32895;DHT22;19251;49.484;8.260;2024-02-23T06:12:30;9.90;18.40
32895;DHT22;19251;49.484;8.260;2024-02-23T06:17:32;9.90;18.20
32895;DHT22;19251;49.484;8.260;2024-02-23T06:22:35;9.90;18.10
32895;DHT22;19251;49.484;8.260;2024-02-23T06:27:38;10.00;17.20
32895;DHT22;19251;49.484;8.260;2024-02-23T06:32:40;10.00;17.10
32895;DHT22;19251;49.484;8.260;2024-02-23T06:37:42;10.00;16.80
32895;DHT22;19251;49.484;8.260;2024-02-23T06:42:44;10.00;16.90
32895;DHT22;19251;49.484;8.260;2024-02-23T06:47:46;10.10;16.90
32895;DHT22;19251;49.484;8.260;2024-02-23T06:52:49;10.10;16.90
32895;DHT22;19251;49.484;8.260;2024-02-23T06:57:51;10.10;16.80
32895;DHT22;19251;49.484;8.260;2024-02-23T07:02:53;10.10;16.60
32895;DHT22;19251;49.484;8.260;2024-02-23T07:07:55;10.10;16.50
32895;DHT22;19251;49.484;8.260;2024-02-23T07:12:57;10.10;16.60
32895;DHT22;19251;49.484;8.260;2024-02-23T07:18:00;10.10;16.60
32895;DHT22;19251;49.484;8.260;2024-02-23T07:23:02;10.30;16.90
32895;DHT22;19251;49.484;8.260;2024-02-23T07:28:04;10.20;16.80
32895;DHT22;19251;49.484;8.260;2024-02-23T07:33:06;10.20;16.70
32895;DHT22;19251;49.484;8.260;2024-02-23T07:38:08;10.20;16.50
32895;DHT22;19251;49.484;8.260;2024-02-23T07:43:10;10.20;16.50
32895;DHT22;19251;49.484;8.260;2024-02-23T07:48:13;10.20;16.40
32895;DHT22;19251;49.484;8.260;2024-02-23T07:53:15;10.20;16.30
32895;DHT22;19251;49.484;8.260;2024-02-23T07:58:17;10.20;16.20
32895;DHT22;19251;49.484;8.260;2024-02-23T08:03:19;10.20;16.20
32895;DHT22;19251;49.484;8.260;2024-02-23T08:08:21;10.30;16.20
32895;DHT22;19251;49.484;8.260;2024-02-23T08:13:25;10.40;16.00
32895;DHT22;19251;49.484;8.260;2024-02-23T08:18:28;10.40;15.90
32895;DHT22;19251;49.484;8.260;2024-02-23T08:23:30;10.80;16.00
32895;DHT22;19251;49.484;8.260;2024-02-23T08:28:33;10.70;15.90
32895;DHT22;19251;49.484;8.260;2024-02-23T08:33:35;10.80;15.70
32895;DHT22;19251;49.484;8.260;2024-02-23T08:38:37;10.90;15.60
32895;DHT22;19251;49.484;8.260;2024-02-23T08:43:42;11.00;15.40
32895;DHT22;19251;49.484;8.260;2024-02-23T08:48:44;11.00;15.10
32895;DHT22;19251;49.484;8.260;2024-02-23T08:53:46;11.20;15.20
32895;DHT22;19251;49.484;8.260;2024-02-23T08:58:48;11.10;14.80
32895;DHT22;19251;49.484;8.260;2024-02-23T09:03:50;11.10;14.90
32895;DHT22;19251;49.484;8.260;2024-02-23T09:13:55;11.10;14.60
32895;DHT22;19251;49.484;8.260;2024-02-23T09:18:57;11.20;14.50
32895;DHT22;19251;49.484;8.260;2024-02-23T09:23:59;11.20;14.20
32895;DHT22;19251;49.484;8.260;2024-02-23T09:29:01;11.60;14.40
32895;DHT22;19251;49.484;8.260;2024-02-23T09:34:03;11.50;14.40
32895;DHT22;19251;49.484;8.260;2024-02-23T09:39:05;11.70;14.50
32895;DHT22;19251;49.484;8.260;2024-02-23T09:44:07;11.80;14.60
32895;DHT22;19251;49.484;8.260;2024-02-23T09:49:11;12.00;14.10
32895;DHT22;19251;49.484;8.260;2024-02-23T09:54:13;12.10;13.90
32895;DHT22;19251;49.484;8.260;2024-02-23T09:59:19;12.20;13.70
32895;DHT22;19251;49.484;8.260;2024-02-23T10:04:21;12.30;13.50
32895;DHT22;19251;49.484;8.260;2024-02-23T10:09:23;12.40;13.60
32895;DHT22;19251;49.484;8.260;2024-02-23T10:14:25;12.60;13.20
32895;DHT22;19251;49.484;8.260;2024-02-23T10:19:27;12.80;13.00
32895;DHT22;19251;49.484;8.260;2024-02-23T10:24:31;12.90;12.80
32895;DHT22;19251;49.484;8.260;2024-02-23T10:29:33;13.00;12.40
32895;DHT22;19251;49.484;8.260;2024-02-23T10:34:36;13.30;12.10
32895;DHT22;19251;49.484;8.260;2024-02-23T10:39:39;13.40;11.60
32895;DHT22;19251;49.484;8.260;2024-02-23T10:44:41;13.30;11.20
32895;DHT22;19251;49.484;8.260;2024-02-23T10:49:43;13.40;10.90
32895;DHT22;19251;49.484;8.260;2024-02-23T10:54:47;13.40;10.60
32895;DHT22;19251;49.484;8.260;2024-02-23T10:59:51;13.50;10.60
32895;DHT22;19251;49.484;8.260;2024-02-23T11:04:54;13.50;10.70
32895;DHT22;19251;49.484;8.260;2024-02-23T11:09:59;13.70;10.30
32895;DHT22;19251;49.484;8.260;2024-02-23T11:15:01;13.80;9.90
32895;DHT22;19251;49.484;8.260;2024-02-23T11:20:05;13.80;9.80
32895;DHT22;19251;49.484;8.260;2024-02-23T11:25:08;13.90;9.90
32895;DHT22;19251;49.484;8.260;2024-02-23T11:30:12;14.00;10.00
32895;DHT22;19251;49.484;8.260;2024-02-23T11:35:15;14.10;9.60
32895;DHT22;19251;49.484;8.260;2024-02-23T11:40:17;14.20;9.50
32895;DHT22;19251;49.484;8.260;2024-02-23T11:45:19;14.20;9.10
32895;DHT22;19251;49.484;8.260;2024-02-23T11:50:21;14.10;8.70
32895;DHT22;19251;49.484;8.260;2024-02-23T11:55:24;14.10;8.50
32895;DHT22;19251;49.484;8.260;2024-02-23T12:00:26;13.90;8.20
32895;DHT22;19251;49.484;8.260;2024-02-23T12:05:28;13.90;8.40
32895;DHT22;19251;49.484;8.260;2024-02-23T12:10:30;13.80;8.60
32895;DHT22;19251;49.484;8.260;2024-02-23T12:15:33;13.70;8.80
32895;DHT22;19251;49.484;8.260;2024-02-23T12:20:35;13.90;8.90
32895;DHT22;19251;49.484;8.260;2024-02-23T12:25:38;14.10;9.00
32895;DHT22;19251;49.484;8.260;2024-02-23T12:30:44;14.20;8.90
32895;DHT22;19251;49.484;8.260;2024-02-23T12:35:48;14.00;8.90
32895;DHT22;19251;49.484;8.260;2024-02-23T12:40:50;14.10;8.90
32895;DHT22;19251;49.484;8.260;2024-02-23T12:45:56;14.30;9.20
32895;DHT22;19251;49.484;8.260;2024-02-23T12:50:58;14.40;8.90
32895;DHT22;19251;49.484;8.260;2024-02-23T12:56:03;14.40;8.90
32895;DHT22;19251;49.484;8.260;2024-02-23T13:01:06;14.60;8.90
32895;DHT22;19251;49.484;8.260;2024-02-23T13:06:09;14.40;8.60
32895;DHT22;19251;49.484;8.260;2024-02-23T13:11:11;14.40;8.40
32895;DHT22;19251;49.484;8.260;2024-02-23T13:16:13;14.30;8.60
32895;DHT22;19251;49.484;8.260;2024-02-23T13:21:17;14.30;8.80
32895;DHT22;19251;49.484;8.260;2024-02-23T13:26:19;14.40;8.70
32895;DHT22;19251;49.484;8.260;2024-02-23T13:31:21;14.40;8.90
32895;DHT22;19251;49.484;8.260;2024-02-23T13:36:23;14.40;9.30
32895;DHT22;19251;49.484;8.260;2024-02-23T13:41:25;14.50;9.70
32895;DHT22;19251;49.484;8.260;2024-02-23T13:46:27;14.60;9.60
32895;DHT22;19251;49.484;8.260;2024-02-23T13:51:30;14.60;9.50
32895;DHT22;19251;49.484;8.260;2024-02-23T13:56:32;14.50;9.20
32895;DHT22;19251;49.484;8.260;2024-02-23T14:01:34;14.60;9.30
32895;DHT22;19251;49.484;8.260;2024-02-23T14:06:36;14.80;9.80
32895;DHT22;19251;49.484;8.260;2024-02-23T14:11:38;14.90;9.70
32895;DHT22;19251;49.484;8.260;2024-02-23T14:16:42;15.40;9.50
32895;DHT22;19251;49.484;8.260;2024-02-23T14:21:44;15.70;9.30
32895;DHT22;19251;49.484;8.260;2024-02-23T14:26:46;16.00;8.70
32895;DHT22;19251;49.484;8.260;2024-02-23T14:31:48;16.20;7.20
32895;DHT22;19251;49.484;8.260;2024-02-23T14:36:50;16.10;6.60
32895;DHT22;19251;49.484;8.260;2024-02-23T14:41:52;16.00;6.50
32895;DHT22;19251;49.484;8.260;2024-02-23T14:46:54;15.90;5.90
32895;DHT22;19251;49.484;8.260;2024-02-23T14:51:56;15.60;5.50
32895;DHT22;19251;49.484;8.260;2024-02-23T14:56:58;15.40;6.20
32895;DHT22;19251;49.484;8.260;2024-02-23T15:02:01;15.20;6.50
32895;DHT22;19251;49.484;8.260;2024-02-23T15:07:03;15.00;7.10
32895;DHT22;19251;49.484;8.260;2024-02-23T15:12:05;15.20;7.40
32895;DHT22;19251;49.484;8.260;2024-02-23T15:17:07;15.40;7.00
32895;DHT22;19251;49.484;8.260;2024-02-23T15:22:09;15.40;6.70
32895;DHT22;19251;49.484;8.260;2024-02-23T15:27:16;15.40;6.60
32895;DHT22;19251;49.484;8.260;2024-02-23T15:32:18;15.30;6.50
32895;DHT22;19251;49.484;8.260;2024-02-23T15:37:20;15.20;6.20
32895;DHT22;19251;49.484;8.260;2024-02-23T15:42:22;15.10;6.10
32895;DHT22;19251;49.484;8.260;2024-02-23T15:47:24;15.10;6.10
32895;DHT22;19251;49.484;8.260;2024-02-23T15:52:26;15.10;6.30
32895;DHT22;19251;49.484;8.260;2024-02-23T15:57:28;15.10;6.20
32895;DHT22;19251;49.484;8.260;2024-02-23T16:02:30;15.00;6.10
32895;DHT22;19251;49.484;8.260;2024-02-23T16:07:33;15.00;6.10
32895;DHT22;19251;49.484;8.260;2024-02-23T16:12:35;15.00;6.10
32895;DHT22;19251;49.484;8.260;2024-02-23T16:17:37;14.90;5.90
32895;DHT22;19251;49.484;8.260;2024-02-23T16:22:42;14.90;6.00
32895;DHT22;19251;49.484;8.260;2024-02-23T16:27:44;14.70;6.00
32895;DHT22;19251;49.484;8.260;2024-02-23T16:32:47;14.60;5.90
32895;DHT22;19251;49.484;8.260;2024-02-23T16:37:51;14.60;5.90
32895;DHT22;19251;49.484;8.260;2024-02-23T16:42:54;14.40;6.00
32895;DHT22;19251;49.484;8.260;2024-02-23T16:47:56;14.40;6.00
32895;DHT22;19251;49.484;8.260;2024-02-23T16:52:59;14.20;6.00
32895;DHT22;19251;49.484;8.260;2024-02-23T16:58:01;14.10;6.10
32895;DHT22;19251;49.484;8.260;2024-02-23T17:03:04;14.00;6.20
32895;DHT22;19251;49.484;8.260;2024-02-23T17:08:06;13.80;6.20
32895;DHT22;19251;49.484;8.260;2024-02-23T17:18:11;13.90;6.70
32895;DHT22;19251;49.484;8.260;2024-02-23T17:23:15;13.80;6.70
32895;DHT22;19251;49.484;8.260;2024-02-23T17:28:17;13.70;6.80
32895;DHT22;19251;49.484;8.260;2024-02-23T17:33:19;13.70;6.90
32895;DHT22;19251;49.484;8.260;2024-02-23T17:38:21;13.60;7.00
32895;DHT22;19251;49.484;8.260;2024-02-23T17:43:23;13.50;7.00
32895;DHT22;19251;49.484;8.260;2024-02-23T17:48:26;13.40;7.10
32895;DHT22;19251;49.484;8.260;2024-02-23T17:53:29;13.20;7.10
32895;DHT22;19251;49.484;8.260;2024-02-23T17:58:32;13.20;7.30
32895;DHT22;19251;49.484;8.260;2024-02-23T18:03:37;12.90;7.40
32895;DHT22;19251;49.484;8.260;2024-02-23T18:08:41;12.80;7.60
32895;DHT22;19251;49.484;8.260;2024-02-23T18:13:43;12.80;7.80
32895;DHT22;19251;49.484;8.260;2024-02-23T18:18:46;12.80;8.10
32895;DHT22;19251;49.484;8.260;2024-02-23T18:23:48;12.60;8.20
32895;DHT22;19251;49.484;8.260;2024-02-23T18:33:53;12.60;8.50
32895;DHT22;19251;49.484;8.260;2024-02-23T18:38:55;12.50;8.60
32895;DHT22;19251;49.484;8.260;2024-02-23T18:43:58;12.40;8.80
32895;DHT22;19251;49.484;8.260;2024-02-23T18:49:01;12.40;8.80
32895;DHT22;19251;49.484;8.260;2024-02-23T18:54:03;12.40;8.90
32895;DHT22;19251;49.484;8.260;2024-02-23T18:59:05;12.10;9.00
32895;DHT22;19251;49.484;8.260;2024-02-23T19:04:07;12.10;9.10
32895;DHT22;19251;49.484;8.260;2024-02-23T19:09:09;12.00;9.30
32895;DHT22;19251;49.484;8.260;2024-02-23T19:14:11;11.90;9.40
32895;DHT22;19251;49.484;8.260;2024-02-23T19:19:13;11.80;9.60
32895;DHT22;19251;49.484;8.260;2024-02-23T19:29:18;11.80;9.90
32895;DHT22;19251;49.484;8.260;2024-02-23T19:34:20;11.80;9.90
32895;DHT22;19251;49.484;8.260;2024-02-23T19:39:22;11.70;9.90
32895;DHT22;19251;49.484;8.260;2024-02-23T19:44:24;11.70;10.00
32895;DHT22;19251;49.484;8.260;2024-02-23T19:49:26;11.60;10.00
32895;DHT22;19251;49.484;8.260;2024-02-23T19:54:28;11.50;10.10
32895;DHT22;19251;49.484;8.260;2024-02-23T19:59:30;11.60;10.30
32895;DHT22;19251;49.484;8.260;2024-02-23T20:04:34;11.40;10.30
32895;DHT22;19251;49.484;8.260;2024-02-23T20:14:39;11.30;10.40
32895;DHT22;19251;49.484;8.260;2024-02-23T20:19:41;11.30;10.50
32895;DHT22;19251;49.484;8.260;2024-02-23T20:24:43;11.30;10.70
32895;DHT22;19251;49.484;8.260;2024-02-23T20:29:45;11.30;10.80
32895;DHT22;19251;49.484;8.260;2024-02-23T20:34:48;11.20;10.80
32895;DHT22;19251;49.484;8.260;2024-02-23T20:44:53;11.00;10.90
32895;DHT22;19251;49.484;8.260;2024-02-23T20:49:55;11.10;11.10
32895;DHT22;19251;49.484;8.260;2024-02-23T20:54:57;11.00;11.00
32895;DHT22;19251;49.484;8.260;2024-02-23T20:59:59;11.00;11.10
32895;DHT22;19251;49.484;8.260;2024-02-23T21:05:01;10.90;11.10
32895;DHT22;19251;49.484;8.260;2024-02-23T21:10:04;10.80;11.10
32895;DHT22;19251;49.484;8.260;2024-02-23T21:15:06;10.60;11.10
32895;DHT22;19251;49.484;8.260;2024-02-23T21:20:08;10.50;11.20
32895;DHT22;19251;49.484;8.260;2024-02-23T21:25:10;10.30;11.30
32895;DHT22;19251;49.484;8.260;2024-02-23T21:30:12;10.10;11.30
32895;DHT22;19251;49.484;8.260;2024-02-23T21:35:14;10.10;11.50
32895;DHT22;19251;49.484;8.260;2024-02-23T21:45:26;9.80;12.50
32895;DHT22;19251;49.484;8.260;2024-02-23T21:50:28;9.80;12.70
32895;DHT22;19251;49.484;8.260;2024-02-23T21:55:33;9.70;12.90
32895;DHT22;19251;49.484;8.260;2024-02-23T22:00:35;9.60;13.10
32895;DHT22;19251;49.484;8.260;2024-02-23T22:05:37;9.70;13.70
32895;DHT22;19251;49.484;8.260;2024-02-23T22:10:39;9.50;13.70
32895;DHT22;19251;49.484;8.260;2024-02-23T22:15:41;9.50;13.70
32895;DHT22;19251;49.484;8.260;2024-02-23T22:20:43;9.60;13.80
32895;DHT22;19251;49.484;8.260;2024-02-23T22:25:45;9.60;13.80
32895;DHT22;19251;49.484;8.260;2024-02-23T22:30:47;9.50;13.70
32895;DHT22;19251;49.484;8.260;2024-02-23T22:35:49;9.60;13.70
32895;DHT22;19251;49.484;8.260;2024-02-23T22:40:51;9.60;13.80
32895;DHT22;19251;49.484;8.260;2024-02-23T22:45:54;9.60;14.10
32895;DHT22;19251;49.484;8.260;2024-02-23T22:51:01;9.60;14.70
32895;DHT22;19251;49.484;8.260;2024-02-23T22:56:03;9.60;14.80
32895;DHT22;19251;49.484;8.260;2024-02-23T23:01:05;9.60;14.80
32895;DHT22;19251;49.484;8.260;2024-02-23T23:06:07;9.60;14.80
32895;DHT22;19251;49.484;8.260;2024-02-23T23:11:14;9.60;14.70
32895;DHT22;19251;49.484;8.260;2024-02-23T23:16:16;9.60;14.60
32895;DHT22;19251;49.484;8.260;2024-02-23T23:21:18;9.60;14.50
32895;DHT22;19251;49.484;8.260;2024-02-23T23:26:21;9.50;14.30
32895;DHT22;19251;49.484;8.260;2024-02-23T23:31:23;9.40;14.30
32895;DHT22;19251;49.484;8.260;2024-02-23T23:36:26;9.20;14.10
32895;DHT22;19251;49.484;8.260;2024-02-23T23:41:28;9.00;14.00
32895;DHT22;19251;49.484;8.260;2024-02-23T23:46:30;9.00;14.30
32895;DHT22;19251;49.484;8.260;2024-02-23T23:51:32;8.90;14.40
32895;DHT22;19251;49.484;8.260;2024-02-23T23:56:41;8.70;14.50
